Temp: 1.9°C   Baro: 1011.1mb
  Wind: 0.0mph   Dir: N (352°)
  Rain: 4.2mm (0.0mm/hr)
  Solar: 0W/m2  Hum: 82%

Historic data

Bath Spa Weather Station Historical Data
Daily Summary for October 15, 2021 Units:  Metric    English   Both
Daily Weekly Monthly Yearly Custom
  High: Low: Average:
Temperature: 14.8 °C 11.7 °C 12.9 °C
Dew Point: 12.1 °C 10.1 °C 11.1 °C
Humidity: 93% 77% 86%
Wind Speed: 7.4km/h 0km/h 2.1km/h
Wind Gust: 14.5km/h - -
Wind- - ESE
Pressure: 1022.6 hPa 1018.5 hPa -
Precipitation: 0 mm    
Historical Graphs
 
 
Tabular Data for October 15, 2021
Time Temperature Dew Point Pressure Wind Wind Speed Wind Gust Humidity Rainfall Rate (Hourly) solar
00:04 12.9 °C 11.5 °C 1019.9 hPa West 4 km/h 8 km/h 88% 0 mm 0 W/m2
00:09 12.9 °C 11.5 °C 1019.9 hPa West 3.9 km/h 8 km/h 88% 0 mm 0 W/m2
00:14 12.9 °C 11.5 °C 1019.9 hPa West 4.5 km/h 8 km/h 88% 0 mm 0 W/m2
00:19 12.8 °C 11.4 °C 1019.9 hPa West 3.9 km/h 8 km/h 88% 0 mm 0 W/m2
00:24 12.8 °C 11.4 °C 1019.9 hPa West 4 km/h 8 km/h 88% 0 mm 0 W/m2
00:29 12.8 °C 11.4 °C 1019.9 hPa West 2.6 km/h 8 km/h 88% 0 mm 0 W/m2
00:34 12.8 °C 11.4 °C 1019.9 hPa West 4.5 km/h 8 km/h 88% 0 mm 0 W/m2
00:39 12.8 °C 11.4 °C 1019.5 hPa West 4 km/h 8 km/h 88.4% 0 mm 0 W/m2
00:44 12.8 °C 11.5 °C 1019.5 hPa West 3.2 km/h 6.4 km/h 89% 0 mm 0 W/m2
00:49 12.8 °C 11.5 °C 1019.5 hPa West 3.4 km/h 6.4 km/h 89% 0 mm 0 W/m2
00:54 12.7 °C 11.4 °C 1019.5 hPa West 3.5 km/h 6.4 km/h 89% 0 mm 0 W/m2
00:59 12.7 °C 11.4 °C 1019.5 hPa West 2.1 km/h 6.4 km/h 89% 0 mm 0 W/m2
01:04 12.8 °C 11.5 °C 1019.5 hPa West 3.2 km/h 6.4 km/h 89% 0 mm 0 W/m2
01:09 12.7 °C 11.4 °C 1019.5 hPa West 3.2 km/h 6.4 km/h 89% 0 mm 0 W/m2
01:14 12.7 °C 11.4 °C 1019.5 hPa West 1.6 km/h 6.4 km/h 89% 0 mm 0 W/m2
01:19 12.7 °C 11.4 °C 1019.5 hPa West 2.6 km/h 6.4 km/h 89% 0 mm 0 W/m2
01:23 12.8 °C 11.5 °C 1019.5 hPa West 4 km/h 4.8 km/h 89% 0 mm 0 W/m2
01:29 12.8 °C 11.4 °C 1019.5 hPa West 2.4 km/h 4.8 km/h 89% 0 mm 0 W/m2
01:34 12.8 °C 11.5 °C 1019.5 hPa West 2.9 km/h 8 km/h 89% 0 mm 0 W/m2
01:39 12.8 °C 11.6 °C 1019.5 hPa West 3.4 km/h 6.4 km/h 89.2% 0 mm 0 W/m2
01:44 12.8 °C 11.5 °C 1019.2 hPa West 2.1 km/h 6.4 km/h 89% 0 mm 0 W/m2
01:49 12.8 °C 11.5 °C 1019.5 hPa West 2.6 km/h 4.8 km/h 89% 0 mm 0 W/m2
01:54 12.8 °C 11.5 °C 1019.5 hPa West 2.1 km/h 4.8 km/h 89% 0 mm 0 W/m2
01:59 12.8 °C 11.6 °C 1019.2 hPa West 2.1 km/h 4.8 km/h 89.2% 0 mm 0 W/m2
02:04 12.8 °C 11.6 °C 1019.2 hPa West 3.2 km/h 6.4 km/h 89.4% 0 mm 0 W/m2
02:09 12.8 °C 11.7 °C 1019.2 hPa West 3.2 km/h 4.8 km/h 90% 0 mm 0 W/m2
02:14 12.8 °C 11.7 °C 1019.2 hPa West 3.1 km/h 8 km/h 90% 0 mm 0 W/m2
02:19 12.8 °C 11.7 °C 1019.2 hPa West 2.4 km/h 6.4 km/h 90% 0 mm 0 W/m2
02:24 12.8 °C 11.7 °C 1019.2 hPa West 4.5 km/h 8 km/h 90% 0 mm 0 W/m2
02:29 12.8 °C 11.7 °C 1019.2 hPa West 2.7 km/h 8 km/h 90% 0 mm 0 W/m2
02:34 12.8 °C 11.7 °C 1019.2 hPa West 2.1 km/h 6.4 km/h 90% 0 mm 0 W/m2
02:39 12.8 °C 11.7 °C 1019.2 hPa West 0.6 km/h 1.6 km/h 90% 0 mm 0 W/m2
02:44 12.8 °C 11.7 °C 1019.2 hPa West 0.8 km/h 3.2 km/h 90% 0 mm 0 W/m2
02:49 12.8 °C 11.7 °C 1018.8 hPa West 2.6 km/h 4.8 km/h 90% 0 mm 0 W/m2
02:54 12.8 °C 11.7 °C 1018.8 hPa West 3.2 km/h 4.8 km/h 90% 0 mm 0 W/m2
02:59 12.7 °C 11.6 °C 1018.8 hPa West 3.5 km/h 4.8 km/h 90% 0 mm 0 W/m2
03:04 12.7 °C 11.6 °C 1018.8 hPa West 0.8 km/h 4.8 km/h 90% 0 mm 0 W/m2
03:09 12.7 °C 11.6 °C 1018.8 hPa West 1.3 km/h 4.8 km/h 90% 0 mm 0 W/m2
03:14 12.6 °C 11.5 °C 1018.8 hPa West 3.1 km/h 6.4 km/h 90% 0 mm 0 W/m2
03:19 12.6 °C 11.5 °C 1018.8 hPa West 3.2 km/h 4.8 km/h 90% 0 mm 0 W/m2
03:24 12.6 °C 11.5 °C 1018.8 hPa West 3.5 km/h 6.4 km/h 90.4% 0 mm 0 W/m2
03:29 12.4 °C 11.3 °C 1018.5 hPa West 2.7 km/h 6.4 km/h 90% 0 mm 0 W/m2
03:34 12.4 °C 11.4 °C 1018.5 hPa West 1.9 km/h 6.4 km/h 90.8% 0 mm 0 W/m2
03:39 12.4 °C 11.5 °C 1018.5 hPa West 0.6 km/h 3.2 km/h 91% 0 mm 0 W/m2
03:44 12.4 °C 11.5 °C 1018.5 hPa West 2.3 km/h 4.8 km/h 91% 0 mm 0 W/m2
03:49 12.3 °C 11.4 °C 1018.5 hPa West 1.9 km/h 4.8 km/h 91% 0 mm 0 W/m2
03:54 12.3 °C 11.4 °C 1018.5 hPa West 0.6 km/h 3.2 km/h 91% 0 mm 0 W/m2
03:59 12.2 °C 11.3 °C 1018.5 hPa West 1.8 km/h 6.4 km/h 91% 0 mm 0 W/m2
04:04 12.2 °C 11.3 °C 1018.5 hPa West 2.9 km/h 6.4 km/h 91% 0 mm 0 W/m2
04:09 12.2 °C 11.3 °C 1018.5 hPa West 0.8 km/h 4.8 km/h 91% 0 mm 0 W/m2
04:14 12.2 °C 11.3 °C 1018.5 hPa West 0.3 km/h 3.2 km/h 91% 0 mm 0 W/m2
04:19 12.2 °C 11.2 °C 1018.5 hPa Calm     91% 0 mm 0 W/m2
04:24 12.1 °C 11.2 °C 1018.5 hPa Calm     91% 0 mm 0 W/m2
04:29 12.1 °C 11.2 °C 1018.5 hPa Calm     91% 0 mm 0 W/m2
04:34 11.9 °C 11.1 °C 1018.5 hPa Calm     91% 0 mm 0 W/m2
04:39 11.8 °C 10.9 °C 1018.5 hPa Calm     91% 0 mm 0 W/m2
04:44 11.7 °C 10.8 °C 1018.5 hPa Calm     91% 0 mm 0 W/m2
04:49 11.7 °C 10.8 °C 1018.5 hPa Calm     91% 0 mm 0 W/m2
04:54 11.7 °C 10.8 °C 1018.5 hPa West 1.4 km/h 3.2 km/h 91.4% 0 mm 0 W/m2
04:59 11.8 °C 11.1 °C 1018.5 hPa West 1.9 km/h 3.2 km/h 92% 0 mm 0 W/m2
05:04 11.9 °C 11.1 °C 1018.5 hPa West 2.1 km/h 3.2 km/h 92% 0 mm 0 W/m2
05:09 11.9 °C 11.2 °C 1018.5 hPa West 2.9 km/h 4.8 km/h 92% 0 mm 0 W/m2
05:14 12 °C 11.2 °C 1018.5 hPa West 2.6 km/h 4.8 km/h 92% 0 mm 0 W/m2
05:19 12.1 °C 11.3 °C 1018.5 hPa West 1.8 km/h 4.8 km/h 92% 0 mm 0 W/m2
05:24 12.1 °C 11.3 °C 1018.5 hPa West 2.4 km/h 4.8 km/h 92% 0 mm 0 W/m2
05:29 12.1 °C 11.3 °C 1018.8 hPa West 2.6 km/h 4.8 km/h 92% 0 mm 0 W/m2
05:34 12.1 °C 11.3 °C 1018.8 hPa West 3.2 km/h 4.8 km/h 92% 0 mm 0 W/m2
05:39 12.1 °C 11.3 °C 1018.8 hPa West 2.3 km/h 4.8 km/h 92% 0 mm 0 W/m2
05:44 12.2 °C 11.4 °C 1018.8 hPa Calm   1.6 km/h 92% 0 mm 0 W/m2
05:49 12.2 °C 11.4 °C 1018.5 hPa Calm   1.6 km/h 92% 0 mm 0 W/m2
05:54 12.2 °C 11.4 °C 1018.8 hPa Calm   1.6 km/h 92% 0 mm 0 W/m2
05:59 12.1 °C 11.3 °C 1018.8 hPa Calm   1.6 km/h 92% 0 mm 0 W/m2
06:04 12.1 °C 11.3 °C 1018.8 hPa Calm     92% 0 mm 0 W/m2
06:09 12.1 °C 11.3 °C 1018.8 hPa Calm     92% 0 mm 0 W/m2
06:14 12.1 °C 11.2 °C 1018.5 hPa Calm     92% 0 mm 0 W/m2
06:19 12 °C 11.3 °C 1018.8 hPa Calm     92.8% 0 mm 0 W/m2
06:24 12 °C 11.4 °C 1018.8 hPa Calm     93% 0 mm 0 W/m2
06:29 12 °C 11.4 °C 1018.8 hPa Calm     93% 0 mm 0 W/m2
06:34 12.1 °C 11.5 °C 1018.8 hPa Calm     93% 0 mm 0 W/m2
06:39 12.1 °C 11.5 °C 1018.8 hPa Calm     93% 0 mm 0 W/m2
06:44 12.1 °C 11.5 °C 1018.8 hPa Calm     93% 0 mm 0 W/m2
06:49 12.1 °C 11.5 °C 1018.8 hPa Calm     93% 0 mm 0 W/m2
06:54 12.1 °C 11.5 °C 1018.8 hPa Calm     93% 0 mm 0 W/m2
06:59 12.1 °C 11.5 °C 1018.8 hPa Calm     93% 0 mm 0 W/m2
07:04 12.1 °C 11.4 °C 1018.8 hPa Calm     92.8% 0 mm 0 W/m2
07:09 12 °C 11.3 °C 1018.8 hPa Calm     92.6% 0 mm 0 W/m2
07:14 12 °C 11.4 °C 1018.8 hPa West 1.1 km/h 3.2 km/h 93% 0 mm 0 W/m2
07:19 12 °C 11.4 °C 1018.8 hPa Calm   1.6 km/h 93% 0 mm 0 W/m2
07:24 12 °C 11.4 °C 1018.8 hPa Calm     93% 0 mm 0 W/m2
07:29 12 °C 11.4 °C 1018.8 hPa West 0.3 km/h 1.6 km/h 93% 0 mm 0 W/m2
07:34 11.9 °C 11.3 °C 1018.8 hPa West 1.3 km/h 3.2 km/h 93% 0 mm 0 W/m2
07:39 11.9 °C 11.3 °C 1018.8 hPa Calm     93% 0 mm 0 W/m2
07:44 11.9 °C 11.3 °C 1018.8 hPa Calm     93% 0 mm 9 W/m2
07:49 11.9 °C 11.3 °C 1018.8 hPa West 0.3 km/h 1.6 km/h 93% 0 mm 14 W/m2
07:54 11.9 °C 11.3 °C 1018.8 hPa Calm   1.6 km/h 93% 0 mm 14 W/m2
07:59 11.9 °C 11.3 °C 1018.8 hPa West 0.3 km/h 1.6 km/h 93% 0 mm 16 W/m2
08:04 12 °C 11.4 °C 1019.2 hPa West 0.6 km/h 3.2 km/h 93% 0 mm 18 W/m2
08:09 12.2 °C 11.6 °C 1019.2 hPa Calm     93% 0 mm 21 W/m2
08:14 12.2 °C 11.7 °C 1019.2 hPa Calm     93% 0 mm 23 W/m2
08:19 12.3 °C 11.7 °C 1019.2 hPa Calm   1.6 km/h 93% 0 mm 26 W/m2
08:24 12.4 °C 11.8 °C 1019.5 hPa Calm     93% 0 mm 26 W/m2
08:29 12.6 °C 11.9 °C 1019.5 hPa Calm     93% 0 mm 25 W/m2
08:34 12.4 °C 11.8 °C 1019.5 hPa Calm     93% 0 mm 19 W/m2
08:39 12.3 °C 11.7 °C 1019.5 hPa Calm     93% 0 mm 19 W/m2
08:44 12.3 °C 11.7 °C 1019.5 hPa Calm     93% 0 mm 21 W/m2
08:49 12.3 °C 11.7 °C 1019.5 hPa Calm     93% 0 mm 23 W/m2
08:54 12.4 °C 11.8 °C 1019.9 hPa Calm     93% 0 mm 25 W/m2
08:59 12.5 °C 11.9 °C 1019.9 hPa West 0.6 km/h 3.2 km/h 93% 0 mm 32 W/m2
09:04 12.6 °C 12 °C 1019.9 hPa Calm     93% 0 mm 51 W/m2
09:09 12.7 °C 12.1 °C 1019.9 hPa West 3.9 km/h 8 km/h 93% 0 mm 58 W/m2
09:14 12.4 °C 11.8 °C 1019.9 hPa WNW 5.8 km/h 14.5 km/h 93% 0 mm 51 W/m2
09:19 12.4 °C 11.8 °C 1020.2 hPa NW 4.3 km/h 9.7 km/h 93% 0 mm 30 W/m2
09:24 12.6 °C 12 °C 1020.2 hPa NW 5 km/h 9.7 km/h 93% 0 mm 42 W/m2
09:29 12.6 °C 11.9 °C 1020.2 hPa NW 6.6 km/h 11.3 km/h 92.8% 0 mm 60 W/m2
09:34 12.6 °C 11.8 °C 1020.2 hPa NNW 7.4 km/h 12.9 km/h 92% 0 mm 77 W/m2
09:39 12.6 °C 11.8 °C 1020.5 hPa NNW 3.2 km/h 11.3 km/h 92% 0 mm 100 W/m2
09:44 12.6 °C 11.7 °C 1020.5 hPa North 4.5 km/h 14.5 km/h 91% 0 mm 93 W/m2
09:49 12.6 °C 11.6 °C 1020.5 hPa North 2.6 km/h 9.7 km/h 90.6% 0 mm 102 W/m2
09:54 12.7 °C 11.5 °C 1020.5 hPa North 1.4 km/h 6.4 km/h 89.6% 0 mm 114 W/m2
09:59 12.7 °C 11.4 °C 1020.5 hPa North 2.6 km/h 9.7 km/h 89% 0 mm 111 W/m2
10:04 12.7 °C 11.3 °C 1020.5 hPa North 2.6 km/h 6.4 km/h 88% 0 mm 123 W/m2
10:09 12.8 °C 11.3 °C 1020.9 hPa NNE 4.5 km/h 14.5 km/h 87.2% 0 mm 121 W/m2
10:14 12.9 °C 11.3 °C 1020.9 hPa Calm   4.8 km/h 87% 0 mm 118 W/m2
10:19 13.1 °C 11.3 °C 1020.9 hPa NNE 3.7 km/h 6.4 km/h 86% 0 mm 144 W/m2
10:24 12.9 °C 11 °C 1020.9 hPa NNE 1.4 km/h 4.8 km/h 85.4% 0 mm 144 W/m2
10:29 13.1 °C 11.1 °C 1020.9 hPa NNE 1.3 km/h 4.8 km/h 85% 0 mm 135 W/m2
10:34 13.2 °C 11.2 °C 1020.9 hPa NNE 1.4 km/h 4.8 km/h 85% 0 mm 113 W/m2
10:39 13.2 °C 11 °C 1020.9 hPa NNE 3.9 km/h 9.7 km/h 84% 0 mm 109 W/m2
10:44 13.1 °C 10.9 °C 1021.2 hPa NNE 4 km/h 8 km/h 84% 0 mm 111 W/m2
10:49 13.1 °C 10.8 °C 1021.2 hPa NNE 0.3 km/h 4.8 km/h 83.3% 0 mm 109 W/m2
10:54 13.2 °C 11.1 °C 1021.2 hPa NNE 5.3 km/h 9.7 km/h 84% 0 mm 111 W/m2
10:59 13.2 °C 10.9 °C 1021.2 hPa NNE 3.9 km/h 9.7 km/h 83.2% 0 mm 127 W/m2
11:04 13.2 °C 10.8 °C 1021.2 hPa NNE 5.8 km/h 9.7 km/h 83% 0 mm 128 W/m2
11:09 13.1 °C 10.8 °C 1021.2 hPa NNE 4 km/h 8 km/h 83% 0 mm 128 W/m2
11:14 13.2 °C 10.9 °C 1021.2 hPa NNE 3.5 km/h 8 km/h 83% 0 mm 130 W/m2
11:19 13.2 °C 10.9 °C 1021.2 hPa NNE 4.2 km/h 6.4 km/h 83% 0 mm 102 W/m2
11:24 13.3 °C 11.1 °C 1021.2 hPa NNE 1.3 km/h 9.7 km/h 83% 0 mm 116 W/m2
11:29 13.6 °C 11.3 °C 1021.2 hPa NNE 1.3 km/h 6.4 km/h 83% 0 mm 113 W/m2
11:34 13.6 °C 11.1 °C 1021.2 hPa NNE 3.9 km/h 11.3 km/h 82.4% 0 mm 125 W/m2
11:39 13.4 °C 10.9 °C 1021.2 hPa NNE 3.5 km/h 9.7 km/h 82% 0 mm 141 W/m2
11:44 13.6 °C 11.1 °C 1021.2 hPa NNE 2.3 km/h 8 km/h 82% 0 mm 171 W/m2
11:49 13.6 °C 11.1 °C 1021.2 hPa NNE 4.2 km/h 8 km/h 82% 0 mm 160 W/m2
11:54 13.6 °C 11.1 °C 1021.6 hPa NNE 3.1 km/h 6.4 km/h 82% 0 mm 111 W/m2
11:59 13.7 °C 11.2 °C 1021.6 hPa NNE 4.5 km/h 11.3 km/h 82% 0 mm 130 W/m2
12:04 13.7 °C 11.3 °C 1021.6 hPa NNE 4.8 km/h 9.7 km/h 82.5% 0 mm 179 W/m2
12:09 13.7 °C 11.3 °C 1021.6 hPa NNE 4 km/h 9.7 km/h 82.8% 0 mm 192 W/m2
12:14 13.7 °C 11.3 °C 1021.6 hPa NNE 4 km/h 9.7 km/h 83% 0 mm 163 W/m2
12:19 13.7 °C 11.4 °C 1021.9 hPa NNE 3.1 km/h 8 km/h 83% 0 mm 153 W/m2
12:24 13.5 °C 11.2 °C 1021.9 hPa NNE 5.8 km/h 11.3 km/h 83% 0 mm 167 W/m2
12:29 13.4 °C 11.1 °C 1021.9 hPa NNE 3.7 km/h 9.7 km/h 83% 0 mm 135 W/m2
12:34 13.3 °C 11 °C 1021.9 hPa NNE 6 km/h 12.9 km/h 83% 0 mm 90 W/m2
12:39 13.3 °C 11 °C 1022.2 hPa NNE 4.5 km/h 9.7 km/h 83% 0 mm 95 W/m2
12:44 13.3 °C 11 °C 1021.9 hPa NNE 1.3 km/h 9.7 km/h 83% 0 mm 98 W/m2
12:49 13.4 °C 11.2 °C 1021.9 hPa NNE 1.3 km/h 4.8 km/h 83% 0 mm 114 W/m2
12:54 13.4 °C 11.1 °C 1021.9 hPa NNE 1.6 km/h 6.4 km/h 83% 0 mm 149 W/m2
12:59 13.2 °C 10.7 °C 1021.9 hPa NNE 5.1 km/h 9.7 km/h 82% 0 mm 186 W/m2
13:04 13.3 °C 10.8 °C 1021.9 hPa NNE 4 km/h 9.7 km/h 82% 0 mm 234 W/m2
13:09 13.6 °C 11.1 °C 1021.9 hPa NNE 2.7 km/h 9.7 km/h 82% 0 mm 223 W/m2
13:14 13.7 °C 11.1 °C 1021.9 hPa NNE 5.3 km/h 14.5 km/h 81% 0 mm 283 W/m2
13:19 14 °C 11.1 °C 1022.2 hPa NNE 6.4 km/h 11.3 km/h 80.2% 0 mm 304 W/m2
13:24 14.2 °C 11.2 °C 1022.2 hPa NNE 2.4 km/h 9.7 km/h 79.6% 0 mm 352 W/m2
13:29 14.6 °C 11.5 °C 1021.9 hPa NNE 3.7 km/h 9.7 km/h 78.8% 0 mm 323 W/m2
13:34 14.8 °C 11.4 °C 1021.9 hPa NNE 5.3 km/h 9.7 km/h 77.6% 0 mm 366 W/m2
13:39 14.6 °C 11.3 °C 1021.9 hPa NNE 3.2 km/h 6.4 km/h 78% 0 mm 229 W/m2
13:44 14.3 °C 11 °C 1021.9 hPa NE 3.1 km/h 12.9 km/h 78% 0 mm 225 W/m2
13:49 13.9 °C 10.8 °C 1021.9 hPa NE 3.9 km/h 11.3 km/h 78.8% 0 mm 232 W/m2
13:54 13.9 °C 10.9 °C 1021.9 hPa NE 5 km/h 11.3 km/h 79.6% 0 mm 176 W/m2
13:59 14.1 °C 11.2 °C 1021.9 hPa NE 4 km/h 11.3 km/h 80% 0 mm 132 W/m2
14:04 14 °C 10.9 °C 1021.9 hPa NE 2.6 km/h 8 km/h 79.2% 0 mm 146 W/m2
14:09 13.9 °C 10.8 °C 1021.9 hPa NE 4.5 km/h 8 km/h 79.2% 0 mm 156 W/m2
14:14 13.9 °C 11.1 °C 1021.9 hPa NE 1.3 km/h 8 km/h 80% 0 mm 165 W/m2
14:19 14.2 °C 11.3 °C 1021.9 hPa NE 3.2 km/h 6.4 km/h 80% 0 mm 163 W/m2
14:24 14.4 °C 11.4 °C 1021.9 hPa NE 3.9 km/h 8 km/h 79.6% 0 mm 130 W/m2
14:29 14.3 °C 11.2 °C 1021.9 hPa NE 3.2 km/h 8 km/h 79% 0 mm 128 W/m2
14:34 14.3 °C 11.2 °C 1021.9 hPa NE 1.6 km/h 6.4 km/h 79% 0 mm 142 W/m2
14:39 14.2 °C 11 °C 1021.6 hPa NE 1.1 km/h 4.8 km/h 78.4% 0 mm 156 W/m2
14:44 14.3 °C 11.3 °C 1021.6 hPa NE 3.2 km/h 6.4 km/h 79% 0 mm 144 W/m2
14:49 14.5 °C 11.4 °C 1021.9 hPa NE 1.3 km/h 6.4 km/h 79% 0 mm 107 W/m2
14:54 14.6 °C 11.4 °C 1021.9 hPa NE 1.1 km/h 4.8 km/h 78.8% 0 mm 88 W/m2
14:59 14.3 °C 11.1 °C 1021.9 hPa NE 3.4 km/h 6.4 km/h 78% 0 mm 93 W/m2
15:04 14.1 °C 10.8 °C 1021.9 hPa NE 2.6 km/h 4.8 km/h 78% 0 mm 130 W/m2
15:09 14.1 °C 10.9 °C 1021.9 hPa NE 1.9 km/h 6.4 km/h 78.8% 0 mm 162 W/m2
15:14 14.3 °C 11.2 °C 1021.9 hPa NE 2.3 km/h 6.4 km/h 79% 0 mm 211 W/m2
15:19 14.6 °C 11.4 °C 1021.9 hPa NE 2.3 km/h 6.4 km/h 79% 0 mm 195 W/m2
15:24 14.7 °C 11.4 °C 1021.9 hPa NE 0.6 km/h 6.4 km/h 78.4% 0 mm 155 W/m2
15:29 14.4 °C 11.1 °C 1021.9 hPa NE 1.9 km/h 4.8 km/h 78% 0 mm 149 W/m2
15:34 14.4 °C 11.2 °C 1021.9 hPa NE 2.3 km/h 4.8 km/h 78% 0 mm 139 W/m2
15:39 14.6 °C 11.3 °C 1021.9 hPa NE 2.3 km/h 4.8 km/h 78% 0 mm 116 W/m2
15:44 14.7 °C 11.4 °C 1021.6 hPa NE 1.3 km/h 4.8 km/h 78% 0 mm 107 W/m2
15:49 14.7 °C 11.4 °C 1021.6 hPa NE 2.6 km/h 6.4 km/h 78% 0 mm 104 W/m2
15:54 14.8 °C 11.5 °C 1021.6 hPa NE 0.8 km/h 3.2 km/h 78% 0 mm 100 W/m2
15:59 14.8 °C 11.5 °C 1021.6 hPa NE 1 km/h 4.8 km/h 78% 0 mm 83 W/m2
16:04 14.8 °C 11.3 °C 1021.6 hPa NE 1.9 km/h 4.8 km/h 77.2% 0 mm 100 W/m2
16:09 14.8 °C 11.3 °C 1021.6 hPa NE 0.6 km/h 4.8 km/h 77% 0 mm 100 W/m2
16:14 14.7 °C 11.2 °C 1021.6 hPa NE 1.6 km/h 4.8 km/h 77% 0 mm 91 W/m2
16:19 14.6 °C 11.1 °C 1021.6 hPa NE 3.4 km/h 8 km/h 77% 0 mm 104 W/m2
16:24 14.3 °C 11 °C 1021.2 hPa NE 3.2 km/h 6.4 km/h 77.8% 0 mm 105 W/m2
16:29 14.2 °C 10.8 °C 1021.2 hPa NE 0.8 km/h 4.8 km/h 78% 0 mm 102 W/m2
16:34 14.3 °C 11.1 °C 1021.6 hPa NE 1.9 km/h 3.2 km/h 78.8% 0 mm 86 W/m2
16:39 14.3 °C 11.1 °C 1021.6 hPa NE 4 km/h 6.4 km/h 78.6% 0 mm 69 W/m2
16:44 14.3 °C 11.1 °C 1021.6 hPa NE 1.3 km/h 4.8 km/h 78.2% 0 mm 63 W/m2
16:49 14.4 °C 11.1 °C 1021.6 hPa Calm   3.2 km/h 78% 0 mm 54 W/m2
16:54 14.4 °C 11.1 °C 1021.6 hPa NE 0.3 km/h 3.2 km/h 78% 0 mm 58 W/m2
16:59 14.5 °C 11.2 °C 1021.6 hPa NE 2.4 km/h 4.8 km/h 78% 0 mm 60 W/m2
17:04 14.4 °C 11.1 °C 1021.6 hPa NE 1.3 km/h 3.2 km/h 78% 0 mm 69 W/m2
17:09 14.5 °C 11.2 °C 1021.6 hPa NE 0.8 km/h 3.2 km/h 78% 0 mm 69 W/m2
17:14 14.4 °C 11.1 °C 1021.6 hPa NE 1 km/h 4.8 km/h 78% 0 mm 65 W/m2
17:19 14.3 °C 11 °C 1021.6 hPa NE 0.8 km/h 3.2 km/h 78% 0 mm 54 W/m2
17:24 14.3 °C 11 °C 1021.6 hPa NE 0.3 km/h 1.6 km/h 78% 0 mm 42 W/m2
17:29 14.2 °C 10.9 °C 1021.6 hPa NE 1 km/h 4.8 km/h 78% 0 mm 32 W/m2
17:34 14.1 °C 10.8 °C 1021.6 hPa NE 2.1 km/h 3.2 km/h 78% 0 mm 30 W/m2
17:39 14 °C 10.7 °C 1021.6 hPa NE 2.4 km/h 4.8 km/h 78.2% 0 mm 30 W/m2
17:44 13.8 °C 10.7 °C 1021.6 hPa NE 4.5 km/h 8 km/h 79% 0 mm 26 W/m2
17:49 13.7 °C 10.6 °C 1021.6 hPa NE 2.7 km/h 8 km/h 79% 0 mm 21 W/m2
17:54 13.7 °C 10.7 °C 1021.6 hPa NE 3.2 km/h 4.8 km/h 79.6% 0 mm 16 W/m2
17:59 13.7 °C 10.8 °C 1021.6 hPa NE 2.3 km/h 6.4 km/h 80% 0 mm 14 W/m2
18:04 13.6 °C 10.7 °C 1021.6 hPa NE 3.4 km/h 8 km/h 80% 0 mm 11 W/m2
18:09 13.6 °C 10.7 °C 1021.9 hPa NE 0.6 km/h 6.4 km/h 80% 0 mm 5 W/m2
18:14 13.6 °C 10.8 °C 1021.9 hPa NE 2.7 km/h 6.4 km/h 80.6% 0 mm 0 W/m2
18:19 13.4 °C 10.7 °C 1021.9 hPa NE 1.3 km/h 3.2 km/h 81% 0 mm 0 W/m2
18:24 13.4 °C 10.7 °C 1021.9 hPa NE 2.1 km/h 6.4 km/h 81% 0 mm 0 W/m2
18:29 13.3 °C 10.6 °C 1021.9 hPa NE 1 km/h 4.8 km/h 81% 0 mm 0 W/m2
18:34 13.3 °C 10.6 °C 1021.9 hPa NE 1.9 km/h 4.8 km/h 81% 0 mm 0 W/m2
18:39 13.2 °C 10.5 °C 1022.2 hPa NE 1.9 km/h 6.4 km/h 81% 0 mm 0 W/m2
18:44 13.2 °C 10.5 °C 1022.2 hPa NE 0.8 km/h 4.8 km/h 81% 0 mm 0 W/m2
18:49 13.2 °C 10.5 °C 1022.2 hPa NE 1.6 km/h 4.8 km/h 81% 0 mm 0 W/m2
18:54 13.1 °C 10.4 °C 1021.9 hPa NE 1 km/h 4.8 km/h 81% 0 mm 0 W/m2
18:59 13.1 °C 10.4 °C 1021.9 hPa NE 1.6 km/h 3.2 km/h 81% 0 mm 0 W/m2
19:04 13 °C 10.3 °C 1021.9 hPa NE 1.4 km/h 4.8 km/h 81% 0 mm 0 W/m2
19:09 12.9 °C 10.2 °C 1021.9 hPa NE 1.6 km/h 4.8 km/h 81% 0 mm 0 W/m2
19:14 12.9 °C 10.2 °C 1022.2 hPa NE 1.4 km/h 3.2 km/h 81% 0 mm 0 W/m2
19:19 12.8 °C 10.2 °C 1021.9 hPa NE 1.3 km/h 4.8 km/h 81.6% 0 mm 0 W/m2
19:24 12.8 °C 10.2 °C 1022.2 hPa NE 2.6 km/h 4.8 km/h 81.6% 0 mm 0 W/m2
19:29 12.8 °C 10.3 °C 1022.2 hPa Calm   4.8 km/h 82% 0 mm 0 W/m2
19:34 12.8 °C 10.3 °C 1022.2 hPa NE 0.8 km/h 3.2 km/h 82% 0 mm 0 W/m2
19:39 12.8 °C 10.3 °C 1022.2 hPa NE 1 km/h 3.2 km/h 82% 0 mm 0 W/m2
19:44 12.7 °C 10.2 °C 1022.2 hPa NE 2.4 km/h 4.8 km/h 82% 0 mm 0 W/m2
19:49 12.7 °C 10.2 °C 1022.2 hPa NE 2.1 km/h 4.8 km/h 82% 0 mm 0 W/m2
19:54 12.6 °C 10.2 °C 1022.2 hPa NE 2.3 km/h 6.4 km/h 82.6% 0 mm 0 W/m2
19:59 12.6 °C 10.3 °C 1022.2 hPa NE 3.2 km/h 6.4 km/h 83% 0 mm 0 W/m2
20:04 12.6 °C 10.3 °C 1022.2 hPa NE 2.4 km/h 8 km/h 83% 0 mm 0 W/m2
20:09 12.6 °C 10.2 °C 1022.2 hPa NE 0.6 km/h 4.8 km/h 82.2% 0 mm 0 W/m2
20:14 12.6 °C 10.1 °C 1022.2 hPa Calm   1.6 km/h 82% 0 mm 0 W/m2
20:19 12.6 °C 10.1 °C 1022.2 hPa NE 0.8 km/h 4.8 km/h 82% 0 mm 0 W/m2
20:24 12.6 °C 10.1 °C 1022.2 hPa NE 0.6 km/h 4.8 km/h 82% 0 mm 0 W/m2
20:29 12.6 °C 10.1 °C 1022.2 hPa NE 2.9 km/h 8 km/h 82% 0 mm 0 W/m2
20:34 12.6 °C 10.1 °C 1022.2 hPa NE 2.7 km/h 6.4 km/h 82% 0 mm 0 W/m2
20:39 12.6 °C 10.1 °C 1022.2 hPa NE 1.4 km/h 3.2 km/h 82% 0 mm 0 W/m2
20:44 12.6 °C 10.1 °C 1022.2 hPa NE 3.4 km/h 11.3 km/h 82% 0 mm 0 W/m2
20:49 12.7 °C 10.2 °C 1022.2 hPa NE 3.9 km/h 11.3 km/h 82% 0 mm 0 W/m2
20:54 12.7 °C 10.2 °C 1022.2 hPa NE 4.5 km/h 8 km/h 81.8% 0 mm 0 W/m2
20:59 12.7 °C 10.2 °C 1022.2 hPa NE 3.9 km/h 8 km/h 82% 0 mm 0 W/m2
21:04 12.7 °C 10.2 °C 1022.2 hPa NE 3.4 km/h 11.3 km/h 82% 0 mm 0 W/m2
21:09 12.8 °C 10.3 °C 1022.2 hPa NE 1 km/h 4.8 km/h 82% 0 mm 0 W/m2
21:14 12.8 °C 10.3 °C 1022.2 hPa NE 1.3 km/h 6.4 km/h 82% 0 mm 0 W/m2
21:19 12.7 °C 10.2 °C 1022.2 hPa NE 1.6 km/h 6.4 km/h 82% 0 mm 0 W/m2
21:24 12.7 °C 10.4 °C 1022.2 hPa NE 1.6 km/h 6.4 km/h 83% 0 mm 0 W/m2
21:29 12.7 °C 10.4 °C 1022.2 hPa NE 1.3 km/h 3.2 km/h 83% 0 mm 0 W/m2
21:34 12.7 °C 10.4 °C 1022.2 hPa NE 1.3 km/h 4.8 km/h 83% 0 mm 0 W/m2
21:39 12.7 °C 10.4 °C 1022.2 hPa NE 0.6 km/h 3.2 km/h 83.6% 0 mm 0 W/m2
21:44 12.6 °C 10.5 °C 1022.2 hPa Calm   3.2 km/h 84% 0 mm 0 W/m2
21:49 12.6 °C 10.5 °C 1022.2 hPa Calm     84% 0 mm 0 W/m2
21:54 12.6 °C 10.4 °C 1022.2 hPa NE 1.9 km/h 3.2 km/h 84% 0 mm 0 W/m2
21:59 12.4 °C 10.3 °C 1022.2 hPa NE 1 km/h 3.2 km/h 84.2% 0 mm 0 W/m2
22:04 12.4 °C 10.4 °C 1022.2 hPa NE 2.6 km/h 4.8 km/h 85% 0 mm 0 W/m2
22:09 12.4 °C 10.4 °C 1022.2 hPa NE 0.3 km/h 3.2 km/h 85% 0 mm 0 W/m2
22:14 12.4 °C 10.4 °C 1022.2 hPa NE 1.6 km/h 4.8 km/h 85% 0 mm 0 W/m2
22:19 12.4 °C 10.4 °C 1022.2 hPa NE 0.6 km/h 4.8 km/h 85% 0 mm 0 W/m2
22:24 12.4 °C 10.4 °C 1022.2 hPa NE 0.8 km/h 4.8 km/h 85% 0 mm 0 W/m2
22:29 12.4 °C 10.4 °C 1022.2 hPa NE 2.7 km/h 4.8 km/h 85% 0 mm 0 W/m2
22:34 12.4 °C 10.4 °C 1022.2 hPa NE 1.3 km/h 3.2 km/h 85% 0 mm 0 W/m2
22:39 12.3 °C 10.3 °C 1022.2 hPa NE 1.4 km/h 3.2 km/h 85% 0 mm 0 W/m2
22:44 12.3 °C 10.2 °C 1022.2 hPa NE 1.1 km/h 3.2 km/h 84% 0 mm 0 W/m2
22:49 12.3 °C 10.2 °C 1022.2 hPa NE 2.3 km/h 4.8 km/h 84.4% 0 mm 0 W/m2
22:54 12.3 °C 10.3 °C 1022.2 hPa NE 0.6 km/h 3.2 km/h 85% 0 mm 0 W/m2
22:59 12.2 °C 10.2 °C 1022.2 hPa Calm   1.6 km/h 85% 0 mm 0 W/m2
23:04 12.2 °C 10.2 °C 1022.2 hPa Calm   1.6 km/h 85% 0 mm 0 W/m2
23:09 12.2 °C 10.2 °C 1022.2 hPa NE 1.3 km/h 3.2 km/h 85% 0 mm 0 W/m2
23:14 12.2 °C 10.2 °C 1022.2 hPa NE 0.3 km/h 3.2 km/h 85% 0 mm 0 W/m2
23:19 12.2 °C 10.2 °C 1022.2 hPa NE 0.6 km/h 3.2 km/h 85% 0 mm 0 W/m2
23:24 12.2 °C 10.2 °C 1022.2 hPa NE 1 km/h 4.8 km/h 85% 0 mm 0 W/m2
23:29 12.2 °C 10.2 °C 1022.6 hPa NE 0.6 km/h 3.2 km/h 85% 0 mm 0 W/m2
23:34 12.2 °C 10.2 °C 1022.6 hPa NE 1.3 km/h 4.8 km/h 85% 0 mm 0 W/m2
23:39 12.2 °C 10.2 °C 1022.6 hPa NE 2.1 km/h 4.8 km/h 85% 0 mm 0 W/m2
23:44 12.2 °C 10.3 °C 1022.6 hPa NE 0.6 km/h 3.2 km/h 85.4% 0 mm 0 W/m2
23:49 12.2 °C 10.4 °C 1022.2 hPa NE 1.1 km/h 4.8 km/h 86% 0 mm 0 W/m2
23:54 12.2 °C 10.3 °C 1022.2 hPa NE 1.3 km/h 4.8 km/h 86% 0 mm 0 W/m2
23:59 12.1 °C 10.3 °C 1022.2 hPa NE 1.9 km/h 6.4 km/h 86% 0 mm 0 W/m2
Bath Spa Weather
Compliments of Weather Underground - 2 mb